ENHD

Haugesund Airport

Karmøy, Norway
METAR ENHD 251450Z 18020KT 9999 FEW020 BKN035 13/08 Q1026
Observed Flight Rules
Sep-25 @ 14:50 UTC (26 minutes ago) Visual Flight Rules
Wind Visibility Clouds
180° at 20 knots 10,000+ meters
  • Few at 2,000' AGL
  • Broken at 3,500' AGL
Temperatures Readings
Current 13°C / 55°F
Dewpoint 8°C / 46°F
Humidity 72%
Altimeter 30.3" Hg
Pressure 1026 hPa
Elevation 24
METAR ENHD 251450Z 18020KT 9999 FEW020 BKN035 13/08 Q1026
Observed Flight Rules
Sep-25 @ 14:50 UTC
(26 minutes ago)
VFR
Wind Visibility
180° at 20 knots 10,000+ meters
Clouds
  • Few at 2,000' AGL
  • Broken at 3,500' AGL
Temperature Dewpoint
13°C / 55°F 8°C / 46°F
Humidity Altimeter Pressure
72% 30.3" Hg 1026 hPa